sensor_id;sensor_type;location;lat;lon;timestamp;noise_LAeq;noise_LA_min;noise_LA_max;noise_LA01;noise_LA95
68945;Laerm;55984;48.790;8.990;2023-04-24T00:00:19;51.19;41.95;62.33;;
68945;Laerm;55984;48.790;8.990;2023-04-24T00:02:45;49.67;40.67;58.19;;
68945;Laerm;55984;48.790;8.990;2023-04-24T00:05:15;45.10;39.46;53.31;;
68945;Laerm;55984;48.790;8.990;2023-04-24T00:07:44;47.77;40.26;59.72;;
68945;Laerm;55984;48.790;8.990;2023-04-24T00:10:11;41.04;36.48;49.62;;
68945;Laerm;55984;48.790;8.990;2023-04-24T00:12:37;41.79;37.62;50.22;;
68945;Laerm;55984;48.790;8.990;2023-04-24T00:15:04;41.45;37.74;49.45;;
68945;Laerm;55984;48.790;8.990;2023-04-24T00:17:30;40.44;36.25;49.49;;
68945;Laerm;55984;48.790;8.990;2023-04-24T00:19:56;41.31;36.99;51.67;;
68945;Laerm;55984;48.790;8.990;2023-04-24T00:22:27;41.68;38.55;45.05;;
68945;Laerm;55984;48.790;8.990;2023-04-24T00:24:53;41.44;37.45;49.92;;
68945;Laerm;55984;48.790;8.990;2023-04-24T00:27:19;42.51;36.99;55.04;;
68945;Laerm;55984;48.790;8.990;2023-04-24T00:29:46;38.63;34.36;44.65;;
68945;Laerm;55984;48.790;8.990;2023-04-24T00:32:12;42.46;37.78;49.74;;
68945;Laerm;55984;48.790;8.990;2023-04-24T00:34:38;42.42;37.55;55.14;;
68945;Laerm;55984;48.790;8.990;2023-04-24T00:37:04;41.73;37.36;48.33;;
68945;Laerm;55984;48.790;8.990;2023-04-24T00:39:37;39.47;36.13;47.62;;
68945;Laerm;55984;48.790;8.990;2023-04-24T00:42:04;40.65;36.97;46.73;;
68945;Laerm;55984;48.790;8.990;2023-04-24T00:44:33;40.16;35.56;50.80;;
68945;Laerm;55984;48.790;8.990;2023-04-24T00:47:00;41.95;35.74;57.15;;
68945;Laerm;55984;48.790;8.990;2023-04-24T00:49:26;43.03;38.40;53.96;;
68945;Laerm;55984;48.790;8.990;2023-04-24T00:51:52;40.19;36.71;48.79;;
68945;Laerm;55984;48.790;8.990;2023-04-24T00:54:20;41.72;37.11;55.86;;
68945;Laerm;55984;48.790;8.990;2023-04-24T00:56:47;42.88;37.82;57.13;;
68945;Laerm;55984;48.790;8.990;2023-04-24T00:59:13;40.33;34.89;49.99;;
68945;Laerm;55984;48.790;8.990;2023-04-24T01:01:39;44.09;40.58;56.29;;
68945;Laerm;55984;48.790;8.990;2023-04-24T01:04:07;41.40;36.43;53.63;;
68945;Laerm;55984;48.790;8.990;2023-04-24T01:06:33;41.45;37.64;52.70;;
68945;Laerm;55984;48.790;8.990;2023-04-24T01:08:59;41.44;34.60;56.08;;
68945;Laerm;55984;48.790;8.990;2023-04-24T01:11:26;42.26;38.24;48.71;;
68945;Laerm;55984;48.790;8.990;2023-04-24T01:13:52;41.24;38.25;48.09;;
68945;Laerm;55984;48.790;8.990;2023-04-24T01:16:19;41.77;37.67;53.61;;
68945;Laerm;55984;48.790;8.990;2023-04-24T01:18:47;41.98;37.02;58.57;;
68945;Laerm;55984;48.790;8.990;2023-04-24T01:21:15;42.98;37.81;57.26;;
68945;Laerm;55984;48.790;8.990;2023-04-24T01:23:45;42.32;37.18;47.70;;
68945;Laerm;55984;48.790;8.990;2023-04-24T01:26:15;41.08;36.21;58.07;;
68945;Laerm;55984;48.790;8.990;2023-04-24T01:28:41;42.02;37.18;50.02;;
68945;Laerm;55984;48.790;8.990;2023-04-24T01:31:07;43.00;39.30;48.41;;
68945;Laerm;55984;48.790;8.990;2023-04-24T01:33:33;44.26;40.22;53.12;;
68945;Laerm;55984;48.790;8.990;2023-04-24T01:35:59;40.76;36.99;48.65;;
68945;Laerm;55984;48.790;8.990;2023-04-24T01:38:25;42.60;39.23;48.77;;
68945;Laerm;55984;48.790;8.990;2023-04-24T01:40:52;42.58;39.11;48.84;;
68945;Laerm;55984;48.790;8.990;2023-04-24T01:43:18;42.72;39.07;51.21;;
68945;Laerm;55984;48.790;8.990;2023-04-24T01:45:44;42.04;38.08;48.45;;
68945;Laerm;55984;48.790;8.990;2023-04-24T01:48:11;43.56;40.05;52.09;;
68945;Laerm;55984;48.790;8.990;2023-04-24T01:50:37;43.17;39.64;47.15;;
68945;Laerm;55984;48.790;8.990;2023-04-24T01:53:03;43.13;38.34;56.11;;
68945;Laerm;55984;48.790;8.990;2023-04-24T01:55:29;42.52;38.95;50.90;;
68945;Laerm;55984;48.790;8.990;2023-04-24T01:57:55;42.12;37.95;48.01;;
68945;Laerm;55984;48.790;8.990;2023-04-24T02:00:22;42.88;38.70;48.66;;
68945;Laerm;55984;48.790;8.990;2023-04-24T02:02:49;42.74;38.31;58.01;;
68945;Laerm;55984;48.790;8.990;2023-04-24T02:05:15;43.93;40.86;52.97;;
68945;Laerm;55984;48.790;8.990;2023-04-24T02:07:41;43.08;39.00;51.46;;
68945;Laerm;55984;48.790;8.990;2023-04-24T02:10:07;49.89;40.19;69.95;;
68945;Laerm;55984;48.790;8.990;2023-04-24T02:12:33;43.09;37.88;59.82;;
68945;Laerm;55984;48.790;8.990;2023-04-24T02:14:59;43.17;40.69;47.90;;
68945;Laerm;55984;48.790;8.990;2023-04-24T02:17:25;43.36;40.13;48.46;;
68945;Laerm;55984;48.790;8.990;2023-04-24T02:19:51;44.71;40.66;56.90;;
68945;Laerm;55984;48.790;8.990;2023-04-24T02:22:17;42.73;38.44;48.32;;
68945;Laerm;55984;48.790;8.990;2023-04-24T02:24:43;44.26;39.13;56.55;;
68945;Laerm;55984;48.790;8.990;2023-04-24T02:27:09;44.32;41.51;53.96;;
68945;Laerm;55984;48.790;8.990;2023-04-24T02:29:35;49.83;42.26;66.59;;
68945;Laerm;55984;48.790;8.990;2023-04-24T02:32:01;46.22;43.44;59.44;;
68945;Laerm;55984;48.790;8.990;2023-04-24T02:34:27;46.23;43.29;57.01;;
68945;Laerm;55984;48.790;8.990;2023-04-24T02:36:52;46.74;42.34;59.99;;
68945;Laerm;55984;48.790;8.990;2023-04-24T02:39:22;47.09;40.87;62.70;;
68945;Laerm;55984;48.790;8.990;2023-04-24T02:41:47;44.95;41.47;50.92;;
68945;Laerm;55984;48.790;8.990;2023-04-24T02:44:13;45.81;41.73;50.08;;
68945;Laerm;55984;48.790;8.990;2023-04-24T02:46:39;44.28;41.22;51.08;;
68945;Laerm;55984;48.790;8.990;2023-04-24T02:49:07;44.00;41.48;52.02;;
68945;Laerm;55984;48.790;8.990;2023-04-24T02:51:32;44.69;41.43;52.75;;
68945;Laerm;55984;48.790;8.990;2023-04-24T02:53:59;45.09;41.96;48.68;;
68945;Laerm;55984;48.790;8.990;2023-04-24T02:56:24;44.86;42.40;50.13;;
68945;Laerm;55984;48.790;8.990;2023-04-24T02:58:55;46.99;43.88;51.30;;
68945;Laerm;55984;48.790;8.990;2023-04-24T03:01:25;46.43;43.38;49.11;;
68945;Laerm;55984;48.790;8.990;2023-04-24T03:03:52;47.13;44.11;49.69;;
68945;Laerm;55984;48.790;8.990;2023-04-24T03:06:18;46.89;43.76;58.22;;
68945;Laerm;55984;48.790;8.990;2023-04-24T03:08:43;47.03;44.06;50.49;;
68945;Laerm;55984;48.790;8.990;2023-04-24T03:11:09;46.21;43.63;50.41;;
68945;Laerm;55984;48.790;8.990;2023-04-24T03:13:35;46.54;43.90;54.22;;
68945;Laerm;55984;48.790;8.990;2023-04-24T03:16:01;48.32;44.76;53.47;;
68945;Laerm;55984;48.790;8.990;2023-04-24T03:18:27;48.61;44.76;54.11;;
68945;Laerm;55984;48.790;8.990;2023-04-24T03:20:53;47.65;45.00;51.27;;
68945;Laerm;55984;48.790;8.990;2023-04-24T03:23:19;47.09;44.83;50.79;;
68945;Laerm;55984;48.790;8.990;2023-04-24T03:25:44;47.43;45.39;51.81;;
68945;Laerm;55984;48.790;8.990;2023-04-24T03:28:10;47.36;44.39;52.96;;
68945;Laerm;55984;48.790;8.990;2023-04-24T03:30:36;47.72;43.76;54.33;;
68945;Laerm;55984;48.790;8.990;2023-04-24T03:33:02;48.61;45.68;52.80;;
68945;Laerm;55984;48.790;8.990;2023-04-24T03:35:28;48.32;45.94;53.15;;
68945;Laerm;55984;48.790;8.990;2023-04-24T03:37:54;49.65;46.49;55.89;;
68945;Laerm;55984;48.790;8.990;2023-04-24T03:40:20;50.58;46.91;57.02;;
68945;Laerm;55984;48.790;8.990;2023-04-24T03:42:45;50.35;47.10;58.56;;
68945;Laerm;55984;48.790;8.990;2023-04-24T03:45:11;50.27;45.76;58.47;;
68945;Laerm;55984;48.790;8.990;2023-04-24T03:47:41;51.39;46.47;62.98;;
68945;Laerm;55984;48.790;8.990;2023-04-24T03:50:09;50.52;45.67;61.62;;
68945;Laerm;55984;48.790;8.990;2023-04-24T03:52:35;49.26;45.04;58.74;;
68945;Laerm;55984;48.790;8.990;2023-04-24T03:55:01;50.75;47.23;65.32;;
68945;Laerm;55984;48.790;8.990;2023-04-24T03:57:27;49.80;47.16;58.26;;
68945;Laerm;55984;48.790;8.990;2023-04-24T03:59:53;48.15;45.47;55.63;;
68945;Laerm;55984;48.790;8.990;2023-04-24T04:02:19;48.40;46.08;53.97;;
68945;Laerm;55984;48.790;8.990;2023-04-24T04:04:45;48.85;45.95;57.72;;
68945;Laerm;55984;48.790;8.990;2023-04-24T04:07:10;51.14;47.16;68.30;;
68945;Laerm;55984;48.790;8.990;2023-04-24T04:09:37;50.17;47.58;61.80;;
68945;Laerm;55984;48.790;8.990;2023-04-24T04:12:03;55.14;49.42;69.24;;
68945;Laerm;55984;48.790;8.990;2023-04-24T04:14:29;54.74;49.15;71.31;;
68945;Laerm;55984;48.790;8.990;2023-04-24T04:16:55;51.37;48.68;55.72;;
68945;Laerm;55984;48.790;8.990;2023-04-24T04:19:21;51.02;48.40;54.96;;
68945;Laerm;55984;48.790;8.990;2023-04-24T04:21:47;51.20;48.80;58.94;;
68945;Laerm;55984;48.790;8.990;2023-04-24T04:24:18;51.59;48.28;59.79;;
68945;Laerm;55984;48.790;8.990;2023-04-24T04:26:43;53.04;49.26;59.66;;
68945;Laerm;55984;48.790;8.990;2023-04-24T04:29:12;53.38;50.25;72.03;;
68945;Laerm;55984;48.790;8.990;2023-04-24T04:31:38;53.68;50.68;70.34;;
68945;Laerm;55984;48.790;8.990;2023-04-24T04:34:04;52.34;49.20;63.63;;
68945;Laerm;55984;48.790;8.990;2023-04-24T04:36:30;51.05;48.34;55.73;;
68945;Laerm;55984;48.790;8.990;2023-04-24T04:38:56;51.69;49.49;54.27;;
68945;Laerm;55984;48.790;8.990;2023-04-24T04:41:24;52.22;49.53;57.64;;
68945;Laerm;55984;48.790;8.990;2023-04-24T04:43:51;52.36;48.61;57.38;;
68945;Laerm;55984;48.790;8.990;2023-04-24T04:46:17;51.35;48.63;57.90;;
68945;Laerm;55984;48.790;8.990;2023-04-24T04:48:43;52.27;48.83;56.72;;
68945;Laerm;55984;48.790;8.990;2023-04-24T04:51:09;50.42;47.95;57.97;;
68945;Laerm;55984;48.790;8.990;2023-04-24T04:53:36;52.31;47.66;64.71;;
68945;Laerm;55984;48.790;8.990;2023-04-24T04:56:02;51.10;48.82;55.17;;
68945;Laerm;55984;48.790;8.990;2023-04-24T04:58:28;51.53;48.96;56.18;;
68945;Laerm;55984;48.790;8.990;2023-04-24T05:00:54;51.72;49.09;56.72;;
68945;Laerm;55984;48.790;8.990;2023-04-24T05:03:22;52.24;49.29;64.01;;
68945;Laerm;55984;48.790;8.990;2023-04-24T05:05:48;51.13;48.04;55.45;;
68945;Laerm;55984;48.790;8.990;2023-04-24T05:08:14;51.56;48.52;55.45;;
68945;Laerm;55984;48.790;8.990;2023-04-24T05:10:40;52.86;49.18;61.68;;
68945;Laerm;55984;48.790;8.990;2023-04-24T05:13:06;54.03;47.83;68.21;;
68945;Laerm;55984;48.790;8.990;2023-04-24T05:15:31;52.84;47.60;70.26;;
68945;Laerm;55984;48.790;8.990;2023-04-24T05:17:57;51.33;48.62;54.46;;
68945;Laerm;55984;48.790;8.990;2023-04-24T05:20:26;51.24;48.34;59.05;;
68945;Laerm;55984;48.790;8.990;2023-04-24T05:22:52;52.80;48.90;66.40;;
68945;Laerm;55984;48.790;8.990;2023-04-24T05:25:18;51.24;48.33;55.45;;
68945;Laerm;55984;48.790;8.990;2023-04-24T05:27:44;50.01;47.59;54.82;;
68945;Laerm;55984;48.790;8.990;2023-04-24T05:30:11;54.73;49.13;67.47;;
68945;Laerm;55984;48.790;8.990;2023-04-24T05:32:37;51.25;48.27;65.28;;
68945;Laerm;55984;48.790;8.990;2023-04-24T05:35:04;52.06;47.96;59.26;;
68945;Laerm;55984;48.790;8.990;2023-04-24T05:37:29;51.82;49.30;60.14;;
68945;Laerm;55984;48.790;8.990;2023-04-24T05:39:55;54.24;48.78;68.22;;
68945;Laerm;55984;48.790;8.990;2023-04-24T05:42:21;51.68;49.04;58.08;;
68945;Laerm;55984;48.790;8.990;2023-04-24T05:44:47;50.89;48.25;61.89;;
68945;Laerm;55984;48.790;8.990;2023-04-24T05:47:13;52.67;48.74;61.31;;
68945;Laerm;55984;48.790;8.990;2023-04-24T05:49:41;51.68;48.53;59.50;;
68945;Laerm;55984;48.790;8.990;2023-04-24T05:52:06;53.47;49.08;66.88;;
68945;Laerm;55984;48.790;8.990;2023-04-24T05:54:34;55.86;48.73;66.77;;
68945;Laerm;55984;48.790;8.990;2023-04-24T05:57:00;52.01;46.94;63.06;;
68945;Laerm;55984;48.790;8.990;2023-04-24T05:59:29;55.45;47.64;77.63;;
68945;Laerm;55984;48.790;8.990;2023-04-24T06:01:55;53.34;48.69;65.07;;
68945;Laerm;55984;48.790;8.990;2023-04-24T06:04:21;52.00;48.15;65.77;;
68945;Laerm;55984;48.790;8.990;2023-04-24T06:06:47;52.57;47.18;65.18;;
68945;Laerm;55984;48.790;8.990;2023-04-24T06:09:16;53.69;46.92;70.80;;
68945;Laerm;55984;48.790;8.990;2023-04-24T06:11:43;48.95;46.45;57.03;;
68945;Laerm;55984;48.790;8.990;2023-04-24T06:14:08;48.56;44.93;65.89;;
68945;Laerm;55984;48.790;8.990;2023-04-24T06:16:34;48.45;44.58;65.72;;
68945;Laerm;55984;48.790;8.990;2023-04-24T06:19:00;47.41;43.88;64.10;;
68945;Laerm;55984;48.790;8.990;2023-04-24T06:21:26;48.41;44.41;62.04;;
68945;Laerm;55984;48.790;8.990;2023-04-24T06:23:52;50.30;43.72;69.73;;
68945;Laerm;55984;48.790;8.990;2023-04-24T06:26:18;47.90;44.04;60.10;;
68945;Laerm;55984;48.790;8.990;2023-04-24T06:28:45;47.91;44.39;60.08;;
68945;Laerm;55984;48.790;8.990;2023-04-24T06:31:11;48.76;45.23;59.24;;
68945;Laerm;55984;48.790;8.990;2023-04-24T06:33:37;49.53;44.18;63.81;;
68945;Laerm;55984;48.790;8.990;2023-04-24T06:36:03;50.04;44.71;63.99;;
68945;Laerm;55984;48.790;8.990;2023-04-24T06:38:29;48.76;45.74;62.76;;
68945;Laerm;55984;48.790;8.990;2023-04-24T06:40:55;50.05;45.67;56.53;;
68945;Laerm;55984;48.790;8.990;2023-04-24T06:43:21;49.54;46.25;62.53;;
68945;Laerm;55984;48.790;8.990;2023-04-24T06:45:47;51.90;45.58;66.31;;
68945;Laerm;55984;48.790;8.990;2023-04-24T06:48:13;49.35;45.30;66.51;;
68945;Laerm;55984;48.790;8.990;2023-04-24T06:50:38;48.20;45.30;53.82;;
68945;Laerm;55984;48.790;8.990;2023-04-24T06:53:04;50.80;45.38;65.41;;
68945;Laerm;55984;48.790;8.990;2023-04-24T06:55:30;49.04;44.81;56.13;;
68945;Laerm;55984;48.790;8.990;2023-04-24T06:57:56;51.76;48.73;62.89;;
68945;Laerm;55984;48.790;8.990;2023-04-24T07:00:22;52.09;46.41;67.25;;
68945;Laerm;55984;48.790;8.990;2023-04-24T07:02:49;55.07;48.56;67.14;;
68945;Laerm;55984;48.790;8.990;2023-04-24T07:05:15;52.28;48.53;67.84;;
68945;Laerm;55984;48.790;8.990;2023-04-24T07:07:41;53.05;49.35;63.94;;
68945;Laerm;55984;48.790;8.990;2023-04-24T07:10:08;56.03;48.75;68.61;;
68945;Laerm;55984;48.790;8.990;2023-04-24T07:12:33;57.51;49.51;67.11;;
68945;Laerm;55984;48.790;8.990;2023-04-24T07:15:02;56.51;50.33;66.20;;
68945;Laerm;55984;48.790;8.990;2023-04-24T07:17:36;56.13;49.47;71.31;;
68945;Laerm;55984;48.790;8.990;2023-04-24T07:20:04;56.02;48.94;72.17;;
68945;Laerm;55984;48.790;8.990;2023-04-24T07:22:30;54.55;49.13;67.41;;
68945;Laerm;55984;48.790;8.990;2023-04-24T07:24:56;55.88;50.98;69.61;;
68945;Laerm;55984;48.790;8.990;2023-04-24T07:27:22;57.02;51.28;68.76;;
68945;Laerm;55984;48.790;8.990;2023-04-24T07:29:48;56.57;50.66;67.85;;
68945;Laerm;55984;48.790;8.990;2023-04-24T07:32:14;56.63;48.98;65.92;;
68945;Laerm;55984;48.790;8.990;2023-04-24T07:34:40;56.04;51.28;66.00;;
68945;Laerm;55984;48.790;8.990;2023-04-24T07:37:06;56.82;52.25;67.13;;
68945;Laerm;55984;48.790;8.990;2023-04-24T07:39:31;57.29;52.10;69.63;;
68945;Laerm;55984;48.790;8.990;2023-04-24T07:41:57;55.23;49.93;65.28;;
68945;Laerm;55984;48.790;8.990;2023-04-24T07:44:24;54.32;49.41;66.91;;
68945;Laerm;55984;48.790;8.990;2023-04-24T07:46:50;54.00;50.10;67.30;;
68945;Laerm;55984;48.790;8.990;2023-04-24T07:49:16;57.64;50.17;70.13;;
68945;Laerm;55984;48.790;8.990;2023-04-24T07:51:42;55.98;50.47;72.76;;
68945;Laerm;55984;48.790;8.990;2023-04-24T07:54:07;55.38;50.31;66.92;;
68945;Laerm;55984;48.790;8.990;2023-04-24T07:56:33;53.91;50.45;67.96;;
68945;Laerm;55984;48.790;8.990;2023-04-24T07:59:03;60.29;50.08;75.32;;
68945;Laerm;55984;48.790;8.990;2023-04-24T08:01:30;58.52;51.48;75.54;;
68945;Laerm;55984;48.790;8.990;2023-04-24T08:03:56;53.34;49.17;66.14;;
68945;Laerm;55984;48.790;8.990;2023-04-24T08:06:22;53.80;50.06;65.10;;
68945;Laerm;55984;48.790;8.990;2023-04-24T08:08:49;54.46;50.00;65.87;;
68945;Laerm;55984;48.790;8.990;2023-04-24T08:11:15;53.01;49.22;67.36;;
68945;Laerm;55984;48.790;8.990;2023-04-24T08:13:40;52.73;48.81;69.60;;
68945;Laerm;55984;48.790;8.990;2023-04-24T08:16:06;53.17;48.06;68.49;;
68945;Laerm;55984;48.790;8.990;2023-04-24T08:18:32;52.72;48.21;67.15;;
68945;Laerm;55984;48.790;8.990;2023-04-24T08:21:00;55.26;48.75;73.83;;
68945;Laerm;55984;48.790;8.990;2023-04-24T08:23:26;53.78;49.86;61.13;;
68945;Laerm;55984;48.790;8.990;2023-04-24T08:25:53;56.32;49.44;73.90;;
68945;Laerm;55984;48.790;8.990;2023-04-24T08:28:19;54.67;49.80;72.06;;
68945;Laerm;55984;48.790;8.990;2023-04-24T08:30:46;61.59;50.79;79.89;;
68945;Laerm;55984;48.790;8.990;2023-04-24T08:33:13;54.64;50.99;69.69;;
68945;Laerm;55984;48.790;8.990;2023-04-24T08:35:40;55.96;50.61;70.65;;
68945;Laerm;55984;48.790;8.990;2023-04-24T08:38:05;54.26;50.58;72.76;;
68945;Laerm;55984;48.790;8.990;2023-04-24T08:40:34;52.79;48.48;68.81;;
68945;Laerm;55984;48.790;8.990;2023-04-24T08:43:00;53.77;49.19;68.03;;
68945;Laerm;55984;48.790;8.990;2023-04-24T08:45:26;53.85;48.20;67.30;;
68945;Laerm;55984;48.790;8.990;2023-04-24T08:47:53;53.58;47.75;68.24;;
68945;Laerm;55984;48.790;8.990;2023-04-24T08:50:22;53.63;47.42;73.68;;
68945;Laerm;55984;48.790;8.990;2023-04-24T08:52:52;56.57;47.86;69.07;;
68945;Laerm;55984;48.790;8.990;2023-04-24T08:55:19;52.76;48.01;65.03;;
68945;Laerm;55984;48.790;8.990;2023-04-24T08:57:50;57.81;48.84;77.84;;
68945;Laerm;55984;48.790;8.990;2023-04-24T09:00:19;55.49;48.96;74.02;;
68945;Laerm;55984;48.790;8.990;2023-04-24T09:02:46;55.52;49.23;75.27;;
68945;Laerm;55984;48.790;8.990;2023-04-24T09:05:13;54.34;47.94;69.51;;
68945;Laerm;55984;48.790;8.990;2023-04-24T09:07:41;54.73;48.81;76.84;;
68945;Laerm;55984;48.790;8.990;2023-04-24T09:10:10;61.26;48.65;82.97;;
68945;Laerm;55984;48.790;8.990;2023-04-24T09:12:36;52.34;48.86;66.72;;
68945;Laerm;55984;48.790;8.990;2023-04-24T09:15:02;53.41;49.21;62.07;;
68945;Laerm;55984;48.790;8.990;2023-04-24T09:17:30;54.01;49.08;69.97;;
68945;Laerm;55984;48.790;8.990;2023-04-24T09:19:56;56.08;49.19;71.46;;
68945;Laerm;55984;48.790;8.990;2023-04-24T09:22:23;51.57;48.64;65.31;;
68945;Laerm;55984;48.790;8.990;2023-04-24T09:24:59;51.93;48.85;68.54;;
68945;Laerm;55984;48.790;8.990;2023-04-24T09:27:28;52.37;47.72;68.59;;
68945;Laerm;55984;48.790;8.990;2023-04-24T09:29:55;51.95;48.81;59.41;;
68945;Laerm;55984;48.790;8.990;2023-04-24T09:32:23;53.49;47.57;77.77;;
68945;Laerm;55984;48.790;8.990;2023-04-24T09:35:06;53.49;47.92;71.28;;
68945;Laerm;55984;48.790;8.990;2023-04-24T09:37:36;52.93;48.85;66.73;;
68945;Laerm;55984;48.790;8.990;2023-04-24T09:40:14;53.62;48.82;67.82;;
68945;Laerm;55984;48.790;8.990;2023-04-24T09:42:50;53.31;48.97;69.03;;
68945;Laerm;55984;48.790;8.990;2023-04-24T09:45:17;53.46;48.44;74.02;;
68945;Laerm;55984;48.790;8.990;2023-04-24T09:47:43;51.92;48.11;65.70;;
68945;Laerm;55984;48.790;8.990;2023-04-24T09:50:16;52.55;48.86;68.22;;
68945;Laerm;55984;48.790;8.990;2023-04-24T09:52:44;54.75;50.34;65.52;;
68945;Laerm;55984;48.790;8.990;2023-04-24T09:55:18;54.80;49.52;67.52;;
68945;Laerm;55984;48.790;8.990;2023-04-24T09:57:50;54.40;49.99;71.29;;
68945;Laerm;55984;48.790;8.990;2023-04-24T10:00:25;53.41;48.76;66.55;;
68945;Laerm;55984;48.790;8.990;2023-04-24T10:05:32;52.78;48.30;64.95;;
68945;Laerm;55984;48.790;8.990;2023-04-24T10:08:09;52.74;47.03;65.18;;
68945;Laerm;55984;48.790;8.990;2023-04-24T10:10:40;50.27;46.54;57.80;;
68945;Laerm;55984;48.790;8.990;2023-04-24T10:13:07;51.05;46.48;67.07;;
68945;Laerm;55984;48.790;8.990;2023-04-24T10:15:35;53.16;47.55;66.93;;
68945;Laerm;55984;48.790;8.990;2023-04-24T10:18:02;51.49;48.07;58.56;;
68945;Laerm;55984;48.790;8.990;2023-04-24T10:20:31;53.00;48.96;67.48;;
68945;Laerm;55984;48.790;8.990;2023-04-24T10:22:58;52.53;47.96;70.13;;
68945;Laerm;55984;48.790;8.990;2023-04-24T10:25:30;52.56;47.85;64.62;;
68945;Laerm;55984;48.790;8.990;2023-04-24T10:27:57;51.79;47.95;59.57;;
68945;Laerm;55984;48.790;8.990;2023-04-24T10:30:26;50.84;46.32;59.37;;
68945;Laerm;55984;48.790;8.990;2023-04-24T10:32:52;49.28;46.53;55.05;;
68945;Laerm;55984;48.790;8.990;2023-04-24T10:35:19;50.83;47.41;57.10;;
68945;Laerm;55984;48.790;8.990;2023-04-24T10:38:01;51.18;47.90;64.01;;
68945;Laerm;55984;48.790;8.990;2023-04-24T10:40:33;50.55;46.68;62.15;;
68945;Laerm;55984;48.790;8.990;2023-04-24T10:43:02;49.70;46.28;58.95;;
68945;Laerm;55984;48.790;8.990;2023-04-24T10:45:31;53.29;46.07;75.79;;
68945;Laerm;55984;48.790;8.990;2023-04-24T10:48:07;50.49;46.10;63.21;;
68945;Laerm;55984;48.790;8.990;2023-04-24T10:50:47;53.49;46.75;68.37;;
68945;Laerm;55984;48.790;8.990;2023-04-24T10:53:17;51.31;45.40;62.82;;
68945;Laerm;55984;48.790;8.990;2023-04-24T10:55:50;50.96;46.68;60.93;;
68945;Laerm;55984;48.790;8.990;2023-04-24T10:58:21;50.63;46.39;57.86;;
68945;Laerm;55984;48.790;8.990;2023-04-24T11:00:58;52.88;45.84;67.55;;
68945;Laerm;55984;48.790;8.990;2023-04-24T11:03:29;53.21;47.55;67.21;;
68945;Laerm;55984;48.790;8.990;2023-04-24T11:06:03;52.41;46.87;63.92;;
68945;Laerm;55984;48.790;8.990;2023-04-24T11:11:02;51.48;46.68;61.58;;
68945;Laerm;55984;48.790;8.990;2023-04-24T11:19:08;50.38;45.77;65.75;;
68945;Laerm;55984;48.790;8.990;2023-04-24T11:21:58;56.40;47.47;68.09;;
68945;Laerm;55984;48.790;8.990;2023-04-24T11:24:49;56.76;46.58;69.47;;
68945;Laerm;55984;48.790;8.990;2023-04-24T11:27:21;54.88;48.31;64.80;;
68945;Laerm;55984;48.790;8.990;2023-04-24T11:32:30;51.30;46.44;59.81;;
68945;Laerm;55984;48.790;8.990;2023-04-24T11:35:06;54.75;46.76;62.38;;
68945;Laerm;55984;48.790;8.990;2023-04-24T11:37:37;51.77;46.58;64.39;;
68945;Laerm;55984;48.790;8.990;2023-04-24T11:40:05;53.69;46.29;72.47;;
68945;Laerm;55984;48.790;8.990;2023-04-24T11:42:46;48.96;45.53;57.89;;
68945;Laerm;55984;48.790;8.990;2023-04-24T11:45:15;50.08;46.41;59.22;;
68945;Laerm;55984;48.790;8.990;2023-04-24T11:47:42;49.02;44.69;61.63;;
68945;Laerm;55984;48.790;8.990;2023-04-24T11:50:13;50.30;46.60;57.85;;
68945;Laerm;55984;48.790;8.990;2023-04-24T11:52:40;51.04;46.80;62.82;;
68945;Laerm;55984;48.790;8.990;2023-04-24T11:55:09;57.07;46.96;75.71;;
68945;Laerm;55984;48.790;8.990;2023-04-24T11:57:35;49.91;47.14;59.20;;
68945;Laerm;55984;48.790;8.990;2023-04-24T12:00:03;50.36;47.05;60.03;;
68945;Laerm;55984;48.790;8.990;2023-04-24T12:02:30;51.97;47.26;62.06;;
68945;Laerm;55984;48.790;8.990;2023-04-24T12:04:56;52.98;48.88;69.24;;
68945;Laerm;55984;48.790;8.990;2023-04-24T12:07:23;51.72;47.82;64.55;;
68945;Laerm;55984;48.790;8.990;2023-04-24T12:09:56;57.77;46.77;77.79;;
68945;Laerm;55984;48.790;8.990;2023-04-24T12:12:25;53.71;47.12;69.82;;
68945;Laerm;55984;48.790;8.990;2023-04-24T12:14:56;52.74;47.19;70.65;;
68945;Laerm;55984;48.790;8.990;2023-04-24T12:17:26;51.22;47.06;63.67;;
68945;Laerm;55984;48.790;8.990;2023-04-24T12:20:00;52.69;47.75;67.75;;
68945;Laerm;55984;48.790;8.990;2023-04-24T12:22:28;52.76;48.13;65.46;;
68945;Laerm;55984;48.790;8.990;2023-04-24T12:25:02;50.18;46.22;59.57;;
68945;Laerm;55984;48.790;8.990;2023-04-24T12:27:32;49.60;46.01;61.83;;
68945;Laerm;55984;48.790;8.990;2023-04-24T12:29:59;49.58;46.18;55.70;;
68945;Laerm;55984;48.790;8.990;2023-04-24T12:32:25;54.10;47.06;79.07;;
68945;Laerm;55984;48.790;8.990;2023-04-24T12:34:55;50.24;45.99;60.89;;
68945;Laerm;55984;48.790;8.990;2023-04-24T12:37:26;50.23;46.08;59.63;;
68945;Laerm;55984;48.790;8.990;2023-04-24T12:42:29;54.31;44.84;70.46;;
68945;Laerm;55984;48.790;8.990;2023-04-24T12:44:57;52.29;47.51;66.55;;
68945;Laerm;55984;48.790;8.990;2023-04-24T12:47:25;56.55;48.46;76.00;;
68945;Laerm;55984;48.790;8.990;2023-04-24T12:49:50;57.48;50.39;73.27;;
68945;Laerm;55984;48.790;8.990;2023-04-24T12:52:18;52.77;49.62;65.14;;
68945;Laerm;55984;48.790;8.990;2023-04-24T12:54:45;52.38;47.05;66.11;;
68945;Laerm;55984;48.790;8.990;2023-04-24T12:57:11;52.08;48.01;64.63;;
68945;Laerm;55984;48.790;8.990;2023-04-24T12:59:37;51.90;46.15;66.45;;
68945;Laerm;55984;48.790;8.990;2023-04-24T13:02:04;51.83;46.63;64.54;;
68945;Laerm;55984;48.790;8.990;2023-04-24T13:04:30;51.44;48.17;59.66;;
68945;Laerm;55984;48.790;8.990;2023-04-24T13:06:56;50.39;47.49;58.00;;
68945;Laerm;55984;48.790;8.990;2023-04-24T13:09:22;50.60;46.79;64.15;;
68945;Laerm;55984;48.790;8.990;2023-04-24T13:11:49;50.15;45.83;59.49;;
68945;Laerm;55984;48.790;8.990;2023-04-24T13:14:15;51.08;47.47;58.98;;
68945;Laerm;55984;48.790;8.990;2023-04-24T13:16:41;59.54;49.46;75.37;;
68945;Laerm;55984;48.790;8.990;2023-04-24T13:19:07;53.17;47.90;66.47;;
68945;Laerm;55984;48.790;8.990;2023-04-24T13:21:33;53.99;48.31;70.90;;
68945;Laerm;55984;48.790;8.990;2023-04-24T13:23:58;51.24;47.24;58.94;;
68945;Laerm;55984;48.790;8.990;2023-04-24T13:26:25;51.77;46.76;67.21;;
68945;Laerm;55984;48.790;8.990;2023-04-24T13:28:51;54.00;48.44;70.07;;
68945;Laerm;55984;48.790;8.990;2023-04-24T13:31:16;57.32;48.62;72.28;;
68945;Laerm;55984;48.790;8.990;2023-04-24T13:33:42;56.71;49.27;73.47;;
68945;Laerm;55984;48.790;8.990;2023-04-24T13:36:08;54.48;49.64;72.03;;
68945;Laerm;55984;48.790;8.990;2023-04-24T13:38:34;52.62;48.61;62.09;;
68945;Laerm;55984;48.790;8.990;2023-04-24T13:41:00;51.50;48.90;58.30;;
68945;Laerm;55984;48.790;8.990;2023-04-24T13:43:26;50.95;48.72;55.98;;
68945;Laerm;55984;48.790;8.990;2023-04-24T13:45:52;50.53;46.11;56.76;;
68945;Laerm;55984;48.790;8.990;2023-04-24T13:48:18;50.22;46.27;68.40;;
68945;Laerm;55984;48.790;8.990;2023-04-24T13:50:44;49.77;45.96;54.67;;
68945;Laerm;55984;48.790;8.990;2023-04-24T13:53:10;52.53;46.34;70.69;;
68945;Laerm;55984;48.790;8.990;2023-04-24T13:55:36;50.78;45.81;64.48;;
68945;Laerm;55984;48.790;8.990;2023-04-24T13:58:02;58.88;49.46;70.34;;
68945;Laerm;55984;48.790;8.990;2023-04-24T14:00:28;60.11;49.39;69.64;;